createdAt,value
2022-10-10T00:02:13.117Z,34.35
2022-10-10T00:07:15.129Z,34.12
2022-10-10T00:12:17.034Z,33.99
2022-10-10T00:17:18.975Z,34.21
2022-10-10T00:22:21.553Z,36.25
2022-10-10T00:27:23.616Z,37.70
2022-10-10T00:32:26.421Z,37.72
2022-10-10T00:37:28.319Z,32.60
2022-10-10T00:42:30.492Z,35.42
2022-10-10T00:47:32.509Z,36.42
2022-10-10T00:52:34.737Z,35.82
2022-10-10T00:57:36.644Z,32.28
2022-10-10T01:02:38.548Z,32.44
2022-10-10T01:07:41.284Z,37.18
2022-10-10T01:13:01.976Z,40.12
2022-10-10T01:18:10.341Z,40.49
2022-10-10T01:23:37.297Z,44.04
2022-10-10T01:28:50.736Z,41.11
2022-10-10T01:34:08.864Z,41.04
2022-10-10T01:39:23.413Z,39.09
2022-10-10T01:44:25.792Z,36.89
2022-10-10T01:49:32.664Z,37.55
2022-10-10T01:55:08.259Z,38.23
2022-10-10T02:00:19.630Z,37.55
2022-10-10T02:05:32.413Z,36.42
2022-10-10T02:10:40.203Z,36.70
2022-10-10T02:15:46.636Z,36.34
2022-10-10T02:20:50.766Z,39.38
2022-10-10T02:25:55.372Z,37.99
2022-10-10T02:31:01.330Z,40.93
2022-10-10T02:36:04.056Z,40.70
2022-10-10T02:41:09.038Z,40.78
2022-10-10T02:46:13.814Z,39.60
2022-10-10T02:51:16.696Z,43.78
2022-10-10T02:56:18.637Z,47.05
2022-10-10T03:01:20.545Z,51.27
2022-10-10T03:06:22.509Z,50.87
2022-10-10T03:11:24.586Z,51.30
2022-10-10T03:16:26.709Z,51.87
2022-10-10T03:21:28.705Z,53.48
2022-10-10T03:26:30.897Z,55.97
2022-10-10T03:31:32.826Z,54.71
2022-10-10T03:36:34.868Z,52.56
2022-10-10T03:41:36.857Z,52.91
2022-10-10T03:46:39.108Z,51.79
2022-10-10T03:51:41.325Z,51.06
2022-10-10T03:56:43.337Z,52.75
2022-10-10T04:01:45.218Z,51.91
2022-10-10T04:06:47.388Z,54.15
2022-10-10T04:11:49.424Z,52.15
2022-10-10T04:16:51.324Z,52.82
2022-10-10T04:21:53.152Z,52.89
2022-10-10T04:26:55.614Z,51.74
2022-10-10T04:31:57.498Z,51.36
2022-10-10T04:36:59.546Z,52.33
2022-10-10T04:42:01.413Z,50.94
2022-10-10T04:47:03.678Z,54.30
2022-10-10T04:52:05.662Z,56.43
2022-10-10T04:57:07.585Z,57.03
2022-10-10T05:02:10.469Z,55.96
2022-10-10T05:07:12.559Z,56.44
2022-10-10T05:12:14.453Z,57.39
2022-10-10T05:17:16.403Z,54.68
2022-10-10T05:22:18.338Z,56.19
2022-10-10T05:27:20.401Z,55.73
2022-10-10T05:32:23.404Z,55.38
2022-10-10T05:37:25.534Z,53.10
2022-10-10T05:42:27.432Z,51.20
2022-10-10T05:47:29.533Z,51.27
2022-10-10T05:52:31.548Z,49.92
2022-10-10T05:57:33.637Z,49.62
2022-10-10T06:02:35.842Z,49.34
2022-10-10T06:08:02.461Z,47.57
2022-10-10T06:12:59.864Z,45.95
2022-10-10T06:18:01.798Z,44.59
2022-10-10T06:23:05.310Z,46.08
2022-10-10T06:28:07.897Z,44.64
2022-10-10T06:33:11.080Z,46.27
2022-10-10T06:38:15.073Z,47.40
2022-10-10T06:43:17.373Z,50.53
2022-10-10T06:48:19.598Z,49.19
2022-10-10T06:53:21.740Z,48.63
2022-10-10T06:58:24.749Z,47.83
2022-10-10T07:03:28.142Z,46.57
2022-10-10T07:08:30.869Z,45.12
2022-10-10T07:13:33.500Z,45.06
2022-10-10T07:18:36.868Z,44.34
2022-10-10T07:23:39.448Z,46.02
2022-10-10T07:28:41.413Z,45.80
2022-10-10T07:33:49.916Z,45.39
2022-10-10T07:38:54.749Z,44.80
2022-10-10T07:43:57.040Z,47.89
2022-10-10T07:48:59.577Z,51.92
2022-10-10T07:54:01.592Z,52.56
2022-10-10T07:59:03.590Z,54.71
2022-10-10T08:04:05.645Z,54.74
2022-10-10T08:09:07.654Z,56.06
2022-10-10T08:14:09.770Z,56.84
2022-10-10T08:19:11.773Z,58.54
2022-10-10T08:24:13.608Z,58.74
2022-10-10T08:29:15.858Z,56.54
2022-10-10T08:34:17.745Z,55.25
2022-10-10T08:39:19.883Z,54.98
2022-10-10T08:44:43.662Z,55.58
2022-10-10T08:49:54.428Z,49.41
2022-10-10T08:54:58.728Z,50.31
2022-10-10T09:00:07.088Z,47.70
2022-10-10T09:05:17.936Z,46.02
2022-10-10T09:10:32.058Z,44.96
2022-10-10T09:15:41.552Z,44.35
2022-10-10T09:21:07.046Z,42.79
2022-10-10T09:26:13.073Z,40.25
2022-10-10T09:31:23.547Z,41.39
2022-10-10T09:36:32.507Z,38.01
2022-10-10T09:41:54.538Z,39.33
2022-10-10T09:47:00.032Z,37.69
2022-10-10T09:52:27.728Z,35.81
2022-10-10T09:57:42.642Z,36.45
2022-10-10T10:02:49.602Z,33.13
2022-10-10T10:07:53.022Z,30.96
2022-10-10T10:12:55.443Z,27.74
2022-10-10T10:18:22.410Z,18.56
2022-10-10T10:23:32.894Z,16.48
2022-10-10T10:28:44.552Z,11.07
2022-10-10T10:34:12.975Z,9.68
2022-10-10T10:39:20.543Z,7.61
2022-10-10T10:44:31.766Z,8.10
2022-10-10T10:49:47.461Z,4.91
2022-10-10T10:55:10.953Z,5.63
2022-10-10T11:00:25.616Z,5.68
2022-10-10T11:05:50.221Z,3.96
2022-10-10T11:11:10.166Z,3.08
2022-10-10T11:16:47.961Z,2.70
2022-10-10T11:21:57.456Z,1.44
2022-10-10T11:27:04.444Z,2.51
2022-10-10T11:32:15.163Z,0.32
2022-10-10T11:37:24.889Z,-0.61
2022-10-10T11:42:36.222Z,-0.00
2022-10-10T11:47:45.375Z,-0.06
2022-10-10T11:52:56.145Z,-0.26
2022-10-10T11:58:26.029Z,-0.96
2022-10-10T12:03:28.073Z,-0.82
2022-10-10T12:09:10.545Z,-1.59
2022-10-10T12:14:17.209Z,-2.94
2022-10-10T12:19:24.949Z,-3.57
2022-10-10T12:24:30.786Z,118.19
2022-10-10T12:29:47.846Z,117.10
2022-10-10T12:34:53.144Z,117.49
2022-10-10T12:40:06.940Z,114.39
2022-10-10T12:45:29.252Z,113.29
2022-10-10T12:50:35.851Z,113.39
2022-10-10T12:56:03.223Z,111.71
2022-10-10T13:01:25.628Z,111.23
2022-10-10T13:06:37.334Z,110.28
2022-10-10T13:12:00.694Z,108.65
2022-10-10T13:17:03.076Z,107.19
2022-10-10T13:22:05.353Z,108.36
2022-10-10T13:27:16.481Z,104.94
2022-10-10T13:32:24.081Z,104.47
2022-10-10T13:37:26.803Z,104.50
2022-10-10T13:42:31.454Z,103.01
2022-10-10T13:48:02.431Z,102.12
2022-10-10T13:53:54.142Z,102.51
2022-10-10T13:59:01.387Z,103.28
2022-10-10T14:04:12.480Z,104.55
2022-10-10T14:09:42.220Z,103.55
2022-10-10T14:14:47.922Z,104.15
2022-10-10T14:19:50.892Z,104.23
2022-10-10T14:24:52.799Z,103.24
2022-10-10T14:29:56.941Z,104.55
2022-10-10T14:34:59.321Z,103.45
2022-10-10T14:40:04.355Z,104.85
2022-10-10T14:45:06.872Z,104.40
2022-10-10T14:50:17.738Z,105.39
2022-10-10T14:55:19.772Z,105.31
2022-10-10T15:00:24.250Z,107.03
2022-10-10T15:05:26.424Z,108.62
2022-10-10T15:10:33.710Z,110.90
2022-10-10T15:15:36.191Z,112.61
2022-10-10T15:20:38.238Z,113.91
2022-10-10T15:25:43.859Z,114.76
2022-10-10T15:30:46.259Z,116.85
2022-10-10T15:36:10.884Z,117.95
2022-10-10T15:41:15.265Z,-5.61
2022-10-10T15:46:17.155Z,-3.88
2022-10-10T15:51:19.715Z,-2.63
2022-10-10T15:56:21.551Z,-1.66
2022-10-10T16:01:24.716Z,-1.02
2022-10-10T16:06:26.869Z,-0.15
2022-10-10T16:11:28.829Z,1.01
2022-10-10T16:16:31.817Z,1.92
2022-10-10T16:21:33.734Z,2.77
2022-10-10T16:26:37.639Z,3.55
2022-10-10T16:31:40.452Z,5.26
2022-10-10T16:36:42.748Z,6.88
2022-10-10T16:41:49.027Z,8.82
2022-10-10T16:46:51.747Z,9.84
2022-10-10T16:51:53.893Z,11.23
2022-10-10T16:56:55.868Z,12.30
2022-10-10T17:01:58.028Z,13.65
2022-10-10T17:07:00.359Z,14.87
2022-10-10T17:12:02.361Z,15.51
2022-10-10T17:17:13.397Z,16.35
2022-10-10T17:22:16.605Z,17.38
2022-10-10T17:27:18.756Z,17.20
2022-10-10T17:32:21.334Z,19.15
2022-10-10T17:37:23.316Z,20.39
2022-10-10T17:42:25.296Z,20.88
2022-10-10T17:47:27.935Z,21.51
2022-10-10T17:52:29.887Z,22.56
2022-10-10T17:57:32.886Z,22.64
2022-10-10T18:02:35.062Z,23.32
2022-10-10T18:07:37.320Z,24.09
2022-10-10T18:12:39.234Z,24.32
2022-10-10T18:17:41.149Z,24.49
2022-10-10T18:22:43.218Z,25.56
2022-10-10T18:27:45.201Z,25.08
2022-10-10T18:32:47.289Z,26.20
2022-10-10T18:37:49.286Z,25.94
2022-10-10T18:42:51.400Z,27.50
2022-10-10T18:48:00.129Z,27.91
2022-10-10T18:53:02.178Z,28.32
2022-10-10T18:58:07.260Z,29.68
2022-10-10T19:03:09.369Z,30.47
2022-10-10T19:08:11.909Z,30.99
2022-10-10T19:13:19.162Z,30.62
2022-10-10T19:18:22.535Z,30.44
2022-10-10T19:23:29.759Z,31.91
2022-10-10T19:28:32.960Z,31.38
2022-10-10T19:33:35.574Z,32.27
2022-10-10T19:38:39.258Z,32.38
2022-10-10T19:43:42.966Z,32.62
2022-10-10T19:48:44.878Z,32.72
2022-10-10T19:53:46.865Z,33.26
2022-10-10T19:58:48.851Z,33.28
2022-10-10T20:03:51.477Z,35.11
2022-10-10T20:08:53.928Z,35.13
2022-10-10T20:13:56.178Z,35.92
2022-10-10T20:18:59.131Z,37.33
2022-10-10T20:24:13.426Z,37.42
2022-10-10T20:29:15.431Z,38.75
2022-10-10T20:34:17.361Z,38.23
2022-10-10T20:39:20.162Z,38.16
2022-10-10T20:44:22.185Z,39.22
2022-10-10T20:49:24.721Z,38.24
2022-10-10T20:54:26.602Z,39.16
2022-10-10T20:59:29.284Z,37.97
2022-10-10T21:04:31.112Z,38.63
2022-10-10T21:09:33.258Z,37.45
2022-10-10T21:14:35.102Z,37.95
2022-10-10T21:19:37.041Z,36.23
2022-10-10T21:24:39.492Z,36.64
2022-10-10T21:29:41.353Z,37.18
2022-10-10T21:34:43.273Z,37.75
2022-10-10T21:39:45.154Z,38.59
2022-10-10T21:44:47.423Z,37.37
2022-10-10T21:49:49.768Z,37.70
2022-10-10T21:54:52.296Z,39.08
2022-10-10T21:59:54.613Z,39.36
2022-10-10T22:04:59.011Z,39.04
2022-10-10T22:10:01.420Z,39.14
2022-10-10T22:15:03.409Z,39.98
2022-10-10T22:20:07.626Z,38.46
2022-10-10T22:25:13.717Z,38.01
2022-10-10T22:30:15.677Z,36.92
2022-10-10T22:35:17.897Z,36.98
2022-10-10T22:40:22.440Z,35.11
2022-10-10T22:45:24.843Z,36.66
2022-10-10T22:50:27.319Z,35.68
2022-10-10T22:55:29.360Z,35.31
2022-10-10T23:00:31.607Z,36.02
2022-10-10T23:05:33.811Z,36.27
2022-10-10T23:10:35.977Z,36.79
2022-10-10T23:15:37.935Z,37.13
2022-10-10T23:20:39.865Z,36.52
2022-10-10T23:25:47.553Z,37.58
2022-10-10T23:30:49.647Z,36.63
2022-10-10T23:36:03.375Z,36.11
2022-10-10T23:41:06.064Z,35.89
2022-10-10T23:46:08.481Z,35.79
2022-10-10T23:51:10.901Z,37.43
2022-10-10T23:56:12.845Z,36.55
